createdAt,value
2019-05-03T00:01:19.590Z,2.27
2019-05-03T00:03:46.761Z,2.27
2019-05-03T00:06:13.161Z,2.60
2019-05-03T00:08:41.418Z,2.75
2019-05-03T00:11:07.751Z,2.60
2019-05-03T00:13:34.181Z,2.58
2019-05-03T00:16:05.470Z,2.52
2019-05-03T00:18:32.747Z,2.35
2019-05-03T00:20:59.254Z,2.60
2019-05-03T00:23:25.633Z,2.70
2019-05-03T00:25:52.425Z,2.10
2019-05-03T00:28:18.866Z,2.60
2019-05-03T00:30:45.455Z,2.60
2019-05-03T00:33:11.843Z,2.60
2019-05-03T00:35:40.141Z,2.17
2019-05-03T00:38:08.433Z,2.50
2019-05-03T00:40:34.843Z,2.30
2019-05-03T00:45:43.439Z,2.37
2019-05-03T00:48:09.857Z,2.47
2019-05-03T00:50:36.189Z,2.30
2019-05-03T00:53:02.916Z,2.37
2019-05-03T00:55:29.180Z,2.37
2019-05-03T00:57:55.491Z,2.00
2019-05-03T01:00:22.060Z,2.62
2019-05-03T01:02:48.339Z,2.15
2019-05-03T01:05:14.952Z,2.50
2019-05-03T01:07:42.255Z,2.22
2019-05-03T01:10:09.480Z,2.40
2019-05-03T01:12:35.910Z,2.30
2019-05-03T01:15:06.763Z,2.12
2019-05-03T01:17:35.086Z,2.08
2019-05-03T01:20:02.823Z,2.47
2019-05-03T01:22:29.296Z,1.92
2019-05-03T01:24:55.685Z,2.55
2019-05-03T01:27:22.156Z,2.20
2019-05-03T01:29:48.399Z,2.62
2019-05-03T01:32:14.740Z,2.20
2019-05-03T01:34:41.646Z,2.35
2019-05-03T01:37:08.213Z,2.10
2019-05-03T01:39:34.589Z,2.50
2019-05-03T01:42:02.704Z,2.10
2019-05-03T01:44:29.033Z,2.10
2019-05-03T01:46:57.351Z,2.30
2019-05-03T01:49:28.807Z,1.98
2019-05-03T01:52:02.091Z,2.30
2019-05-03T01:54:28.568Z,2.17
2019-05-03T01:56:58.421Z,2.25
2019-05-03T01:59:23.124Z,2.58
2019-05-03T02:02:14.199Z,2.30
2019-05-03T02:04:42.462Z,2.85
2019-05-03T02:07:08.726Z,2.42
2019-05-03T02:09:35.052Z,2.60
2019-05-03T02:12:02.137Z,2.65
2019-05-03T02:14:28.503Z,2.77
2019-05-03T02:16:54.806Z,2.30
2019-05-03T02:19:21.962Z,2.42
2019-05-03T02:21:48.698Z,2.72
2019-05-03T02:24:15.149Z,3.50
2019-05-03T02:26:42.519Z,2.95
2019-05-03T02:29:09.067Z,2.62
2019-05-03T02:31:35.457Z,3.33
2019-05-03T02:34:03.498Z,3.15
2019-05-03T02:36:33.467Z,3.08
2019-05-03T02:38:58.441Z,3.00
2019-05-03T02:41:24.823Z,2.95
2019-05-03T02:43:55.812Z,3.10
2019-05-03T02:46:39.790Z,2.40
2019-05-03T02:49:11.034Z,3.47
2019-05-03T02:51:37.419Z,2.98
2019-05-03T02:54:05.564Z,2.40
2019-05-03T02:56:32.116Z,3.08
2019-05-03T02:58:58.396Z,2.95
2019-05-03T03:01:26.348Z,2.70
2019-05-03T03:03:55.893Z,2.65
2019-05-03T03:06:22.004Z,2.83
2019-05-03T03:08:48.925Z,3.00
2019-05-03T03:11:16.484Z,2.77
2019-05-03T03:13:45.788Z,2.70
2019-05-03T03:16:12.450Z,2.50
2019-05-03T03:18:39.516Z,2.75
2019-05-03T03:21:18.309Z,2.67
2019-05-03T03:24:06.649Z,2.80
2019-05-03T03:26:41.632Z,3.40
2019-05-03T03:29:06.615Z,2.90
2019-05-03T03:31:57.980Z,2.40
2019-05-03T03:34:28.428Z,3.05
2019-05-03T03:37:03.754Z,2.77
2019-05-03T03:39:26.011Z,2.72
2019-05-03T03:41:55.640Z,2.65
2019-05-03T03:44:21.880Z,2.52
2019-05-03T03:46:48.856Z,2.50
2019-05-03T03:49:19.341Z,3.17
2019-05-03T03:51:52.314Z,2.80
2019-05-03T03:54:19.904Z,3.10
2019-05-03T03:57:02.178Z,2.47
2019-05-03T03:59:18.373Z,2.65
2019-05-03T04:01:45.670Z,2.72
2019-05-03T04:04:12.768Z,2.95
2019-05-03T04:06:41.895Z,3.55
2019-05-03T04:09:08.597Z,2.60
2019-05-03T04:11:35.154Z,2.70
2019-05-03T04:14:01.536Z,3.10
2019-05-03T04:16:36.538Z,3.22
2019-05-03T04:19:07.929Z,3.60
2019-05-03T04:21:35.870Z,3.40
2019-05-03T04:24:02.844Z,3.10
2019-05-03T04:26:30.182Z,2.98
2019-05-03T04:28:56.805Z,3.45
2019-05-03T04:31:25.902Z,3.00
2019-05-03T04:33:51.679Z,2.90
2019-05-03T04:36:18.192Z,2.70
2019-05-03T04:38:45.433Z,3.40
2019-05-03T04:41:12.295Z,3.50
2019-05-03T04:43:38.704Z,3.75
2019-05-03T04:46:09.665Z,3.50
2019-05-03T04:48:36.070Z,3.40
2019-05-03T04:51:02.493Z,3.45
2019-05-03T04:53:30.058Z,3.17
2019-05-03T04:55:56.561Z,3.50
2019-05-03T04:58:25.685Z,3.40
2019-05-03T05:00:51.310Z,3.40
2019-05-03T05:03:17.644Z,3.10
2019-05-03T05:05:45.252Z,3.40
2019-05-03T05:08:11.893Z,3.17
2019-05-03T05:10:38.124Z,3.87
2019-05-03T05:13:05.375Z,3.40
2019-05-03T05:15:31.936Z,3.27
2019-05-03T05:18:12.231Z,3.17
2019-05-03T05:20:49.549Z,3.27
2019-05-03T05:23:16.193Z,3.05
2019-05-03T05:25:47.165Z,3.20
2019-05-03T05:28:35.501Z,3.12
2019-05-03T05:31:02.210Z,3.12
2019-05-03T05:33:28.670Z,3.22
2019-05-03T05:35:55.185Z,2.77
2019-05-03T05:38:21.638Z,3.77
2019-05-03T05:40:48.265Z,3.15
2019-05-03T05:43:15.227Z,3.25
2019-05-03T05:45:41.656Z,3.22
2019-05-03T05:48:09.844Z,3.30
2019-05-03T05:50:38.251Z,3.50
2019-05-03T05:53:05.056Z,3.10
2019-05-03T05:55:39.390Z,2.70
2019-05-03T05:58:08.444Z,3.65
2019-05-03T06:00:55.200Z,3.35
2019-05-03T06:03:21.510Z,2.75
2019-05-03T06:05:48.597Z,2.62
2019-05-03T06:08:16.862Z,3.22
2019-05-03T06:10:45.239Z,2.85
2019-05-03T06:13:16.493Z,3.10
2019-05-03T06:15:47.407Z,2.80
2019-05-03T06:18:25.064Z,3.00
2019-05-03T06:21:05.625Z,2.90
2019-05-03T06:23:34.768Z,2.35
2019-05-03T06:26:01.425Z,2.15
2019-05-03T06:28:32.298Z,2.52
2019-05-03T06:31:04.805Z,3.10
2019-05-03T06:33:31.314Z,2.62
2019-05-03T06:35:57.735Z,2.33
2019-05-03T06:38:24.420Z,2.40
2019-05-03T06:40:50.847Z,2.20
2019-05-03T06:43:17.152Z,2.30
2019-05-03T06:45:46.698Z,2.40
2019-05-03T06:48:11.852Z,2.10
2019-05-03T06:50:38.231Z,3.08
2019-05-03T06:53:10.331Z,2.80
2019-05-03T06:55:34.926Z,2.02
2019-05-03T06:58:00.893Z,2.20
2019-05-03T07:00:29.248Z,2.42
2019-05-03T07:03:00.632Z,2.60
2019-05-03T07:05:35.452Z,1.77
2019-05-03T07:08:05.198Z,2.37
2019-05-03T07:10:35.286Z,2.52
2019-05-03T07:13:07.094Z,2.45
2019-05-03T07:15:35.105Z,2.20
2019-05-03T07:18:01.827Z,2.33
2019-05-03T07:20:30.073Z,2.15
2019-05-03T07:22:56.350Z,3.12
2019-05-03T07:25:22.844Z,2.10
2019-05-03T07:27:49.274Z,2.15
2019-05-03T07:30:15.922Z,2.58
2019-05-03T07:32:44.882Z,2.50
2019-05-03T07:35:11.389Z,2.40
2019-05-03T07:37:37.754Z,2.83
2019-05-03T07:40:05.408Z,2.30
2019-05-03T07:42:31.812Z,2.60
2019-05-03T07:44:58.076Z,2.70
2019-05-03T07:47:24.782Z,2.50
2019-05-03T07:49:51.396Z,2.70
2019-05-03T07:52:17.734Z,2.52
2019-05-03T07:54:45.144Z,2.80
2019-05-03T07:57:18.221Z,2.80
2019-05-03T07:59:45.514Z,2.90
2019-05-03T08:02:11.873Z,2.65
2019-05-03T08:04:38.134Z,2.50
2019-05-03T08:07:04.673Z,2.05
2019-05-03T08:09:31.797Z,2.80
2019-05-03T08:11:58.050Z,2.70
2019-05-03T08:14:25.221Z,2.70
2019-05-03T08:16:51.855Z,2.30
2019-05-03T08:19:18.154Z,2.10
2019-05-03T08:21:45.333Z,2.08
2019-05-03T08:24:11.726Z,2.30
2019-05-03T08:26:38.181Z,2.00
2019-05-03T08:29:15.189Z,2.10
2019-05-03T08:31:35.368Z,2.25
2019-05-03T08:34:06.961Z,1.85
2019-05-03T08:36:54.792Z,1.98
2019-05-03T08:39:21.276Z,2.02
2019-05-03T08:41:55.422Z,1.90
2019-05-03T08:44:21.748Z,2.00
2019-05-03T08:46:48.020Z,1.72
2019-05-03T08:49:15.015Z,1.80
2019-05-03T08:51:41.325Z,1.60
2019-05-03T08:54:07.606Z,1.98
2019-05-03T08:56:34.893Z,2.12
2019-05-03T08:59:01.387Z,2.10
2019-05-03T09:01:27.701Z,1.95
2019-05-03T09:03:55.820Z,2.08
2019-05-03T09:06:22.165Z,1.60
2019-05-03T09:08:48.578Z,2.12
2019-05-03T09:11:16.662Z,1.70
2019-05-03T09:13:47.543Z,2.10
2019-05-03T09:16:16.832Z,2.02
2019-05-03T09:18:45.264Z,1.90
2019-05-03T09:21:11.283Z,1.60
2019-05-03T09:23:37.719Z,1.32
2019-05-03T09:26:04.619Z,1.50
2019-05-03T09:28:31.362Z,1.40
2019-05-03T09:30:57.687Z,1.92
2019-05-03T09:33:24.906Z,2.00
2019-05-03T09:35:51.353Z,2.27
2019-05-03T09:38:17.735Z,2.20
2019-05-03T09:40:45.376Z,2.27
2019-05-03T09:43:11.913Z,2.20
2019-05-03T09:45:38.194Z,2.10
2019-05-03T09:48:05.908Z,1.87
2019-05-03T09:50:32.469Z,2.10
2019-05-03T09:52:58.801Z,2.20
2019-05-03T09:55:32.746Z,2.30
2019-05-03T09:57:59.138Z,2.08
2019-05-03T10:00:25.720Z,2.17
2019-05-03T10:02:54.810Z,1.80
2019-05-03T10:05:21.362Z,1.90
2019-05-03T10:07:47.816Z,1.70
2019-05-03T10:10:15.376Z,2.20
2019-05-03T10:12:41.786Z,1.42
2019-05-03T10:15:08.673Z,2.05
2019-05-03T10:17:36.753Z,2.10
2019-05-03T10:20:08.268Z,1.90
2019-05-03T10:22:34.942Z,1.70
2019-05-03T10:25:02.213Z,1.70
2019-05-03T10:27:30.491Z,2.00
2019-05-03T10:30:09.750Z,1.57
2019-05-03T10:32:36.110Z,1.90
2019-05-03T10:35:08.819Z,1.47
2019-05-03T10:37:35.971Z,1.60
2019-05-03T10:40:07.785Z,1.50
2019-05-03T10:42:32.032Z,1.20
2019-05-03T10:44:59.204Z,1.30
2019-05-03T10:47:25.681Z,1.40
2019-05-03T10:49:52.153Z,1.50
2019-05-03T10:52:20.514Z,1.47
2019-05-03T10:54:46.876Z,1.30
2019-05-03T10:57:15.884Z,1.45
2019-05-03T10:59:42.310Z,1.52
2019-05-03T11:02:10.583Z,1.30
2019-05-03T11:04:37.393Z,1.15
2019-05-03T11:07:05.476Z,1.35
2019-05-03T11:09:47.245Z,1.52
2019-05-03T11:12:00.931Z,1.52
2019-05-03T11:14:28.214Z,1.45
2019-05-03T11:16:55.267Z,1.25
2019-05-03T11:19:21.874Z,1.50
2019-05-03T11:21:48.133Z,1.32
2019-05-03T11:24:14.878Z,1.52
2019-05-03T11:26:45.238Z,1.55
2019-05-03T11:29:11.232Z,1.67
2019-05-03T11:31:56.290Z,2.02
2019-05-03T11:34:25.380Z,1.37
2019-05-03T11:37:10.799Z,1.52
2019-05-03T11:39:37.410Z,1.60
2019-05-03T11:42:04.704Z,1.85
2019-05-03T11:44:37.125Z,1.80
2019-05-03T11:47:05.617Z,1.82
2019-05-03T11:49:31.766Z,1.92
2019-05-03T11:51:58.286Z,1.80
2019-05-03T11:54:25.034Z,1.50
2019-05-03T11:56:51.872Z,1.67
2019-05-03T11:59:18.138Z,1.80
2019-05-03T12:01:51.641Z,1.45
2019-05-03T12:04:17.144Z,1.77
2019-05-03T12:06:45.477Z,1.70
2019-05-03T12:09:11.733Z,1.70
2019-05-03T12:11:39.228Z,1.65
2019-05-03T12:14:11.993Z,1.90
2019-05-03T12:17:10.644Z,2.00
2019-05-03T12:19:16.875Z,1.85
2019-05-03T12:21:38.135Z,1.70
2019-05-03T12:24:06.368Z,2.10
2019-05-03T12:26:41.751Z,2.37
2019-05-03T12:29:01.369Z,2.33
2019-05-03T12:31:36.688Z,1.85
2019-05-03T12:33:55.960Z,1.72
2019-05-03T12:36:24.649Z,1.90
2019-05-03T12:38:54.805Z,1.82
2019-05-03T12:41:21.230Z,2.20
2019-05-03T12:43:47.544Z,1.62
2019-05-03T12:46:16.698Z,1.80
2019-05-03T12:48:42.210Z,1.60
2019-05-03T12:51:08.890Z,1.70
2019-05-03T12:53:35.523Z,1.60
2019-05-03T12:56:01.946Z,1.95
2019-05-03T12:58:49.818Z,1.98
2019-05-03T13:01:21.126Z,1.82
2019-05-03T13:03:49.275Z,2.08
2019-05-03T13:06:15.526Z,2.10
2019-05-03T13:08:42.018Z,2.27
2019-05-03T13:11:08.760Z,1.82
2019-05-03T13:13:35.774Z,1.87
2019-05-03T13:16:04.600Z,2.20
2019-05-03T13:18:31.083Z,2.10
2019-05-03T13:20:57.469Z,2.10
2019-05-03T13:23:25.318Z,2.00
2019-05-03T13:25:51.995Z,2.47
2019-05-03T13:28:18.545Z,2.22
2019-05-03T13:30:45.271Z,2.17
2019-05-03T13:33:12.298Z,2.20
2019-05-03T13:35:38.693Z,2.10
2019-05-03T13:38:05.047Z,2.33
2019-05-03T13:40:31.460Z,2.22
2019-05-03T13:43:03.610Z,2.00
2019-05-03T13:45:26.027Z,1.67
2019-05-03T13:47:55.253Z,1.90
2019-05-03T13:50:21.911Z,1.90
2019-05-03T13:52:48.166Z,1.92
2019-05-03T13:55:15.229Z,1.60
2019-05-03T13:57:41.710Z,1.90
2019-05-03T14:00:08.923Z,1.82
2019-05-03T14:02:36.060Z,2.00
2019-05-03T14:05:04.988Z,2.00
2019-05-03T14:07:31.674Z,1.85
2019-05-03T14:09:57.935Z,1.80
2019-05-03T14:12:24.451Z,1.90
2019-05-03T14:14:55.990Z,2.00
2019-05-03T14:17:28.438Z,2.12
2019-05-03T14:19:56.234Z,1.67
2019-05-03T14:22:24.890Z,1.90
2019-05-03T14:24:51.295Z,2.00
2019-05-03T14:27:17.757Z,2.20
2019-05-03T14:29:45.454Z,2.22
2019-05-03T14:32:25.154Z,2.10
2019-05-03T14:34:40.301Z,1.90
2019-05-03T14:37:06.814Z,2.30
2019-05-03T14:39:33.309Z,1.90
2019-05-03T14:41:59.948Z,1.80
2019-05-03T14:44:26.405Z,2.05
2019-05-03T14:46:58.693Z,2.15
2019-05-03T14:49:21.497Z,1.80
2019-05-03T14:51:47.807Z,1.87
2019-05-03T14:54:14.783Z,1.80
2019-05-03T14:56:45.349Z,1.85
2019-05-03T14:59:14.859Z,1.90
2019-05-03T15:01:46.050Z,1.90
2019-05-03T15:04:12.409Z,2.30
2019-05-03T15:06:38.789Z,1.60
2019-05-03T15:09:06.265Z,2.10
2019-05-03T15:11:34.205Z,2.00
2019-05-03T15:14:00.732Z,2.17
2019-05-03T15:16:27.024Z,1.90
2019-05-03T15:18:54.857Z,2.00
2019-05-03T15:21:21.507Z,1.90
2019-05-03T15:23:48.146Z,1.80
2019-05-03T15:26:14.481Z,1.50
2019-05-03T15:28:40.767Z,1.42
2019-05-03T15:31:07.153Z,1.35
2019-05-03T15:33:35.358Z,1.60
2019-05-03T15:36:01.920Z,1.37
2019-05-03T15:38:28.233Z,1.30
2019-05-03T15:40:57.276Z,1.40
2019-05-03T15:43:31.435Z,1.45
2019-05-03T15:46:16.115Z,1.42
2019-05-03T15:48:45.808Z,1.55
2019-05-03T15:51:12.281Z,1.60
2019-05-03T15:53:38.538Z,1.20
2019-05-03T15:56:05.464Z,1.65
2019-05-03T15:58:31.999Z,1.60
2019-05-03T16:00:58.488Z,1.50
2019-05-03T16:03:25.220Z,1.60
2019-05-03T16:05:51.790Z,1.40
2019-05-03T16:08:18.085Z,1.50
2019-05-03T16:10:45.694Z,1.52
2019-05-03T16:13:12.150Z,1.67
2019-05-03T16:15:38.651Z,1.52
2019-05-03T16:18:05.251Z,1.70
2019-05-03T16:20:31.702Z,1.55
2019-05-03T16:22:58.119Z,1.60
2019-05-03T16:25:25.218Z,1.62
2019-05-03T16:27:55.284Z,1.75
2019-05-03T16:30:25.606Z,1.67
2019-05-03T16:32:52.015Z,1.72
2019-05-03T16:35:18.269Z,1.80
2019-05-03T16:37:45.250Z,1.62
2019-05-03T16:40:11.695Z,1.50
2019-05-03T16:42:37.943Z,1.90
2019-05-03T16:45:05.567Z,1.77
2019-05-03T16:47:32.320Z,1.70
2019-05-03T16:49:58.832Z,1.60
2019-05-03T16:52:25.675Z,1.60
2019-05-03T16:54:52.035Z,1.72
2019-05-03T16:57:18.292Z,1.50
2019-05-03T16:59:44.642Z,2.05
2019-05-03T17:02:10.938Z,1.72
2019-05-03T17:04:56.076Z,2.10
2019-05-03T17:07:29.983Z,2.15
2019-05-03T17:10:07.481Z,2.05
2019-05-03T17:12:35.278Z,1.50
2019-05-03T17:15:02.220Z,2.20
2019-05-03T17:17:28.627Z,2.17
2019-05-03T17:19:55.158Z,1.98
2019-05-03T17:22:21.657Z,1.77
2019-05-03T17:24:48.123Z,1.70
2019-05-03T17:27:14.387Z,2.00
2019-05-03T17:29:40.764Z,2.50
2019-05-03T17:32:07.017Z,3.02
2019-05-03T17:34:34.692Z,2.40
2019-05-03T17:37:01.327Z,2.42
2019-05-03T17:39:41.721Z,2.50
2019-05-03T17:42:22.633Z,2.30
2019-05-03T17:44:50.392Z,2.40
2019-05-03T17:47:16.641Z,2.47
2019-05-03T17:49:45.067Z,2.75
2019-05-03T17:52:14.254Z,3.10
2019-05-03T17:54:45.809Z,2.80
2019-05-03T17:57:24.378Z,3.00
2019-05-03T17:59:55.308Z,3.10
2019-05-03T18:02:26.197Z,2.58
2019-05-03T18:05:11.013Z,2.90
2019-05-03T18:07:39.303Z,3.05
2019-05-03T18:10:07.296Z,2.65
2019-05-03T18:12:35.039Z,2.67
2019-05-03T18:15:01.567Z,2.50
2019-05-03T18:17:27.878Z,2.77
2019-05-03T18:19:55.312Z,2.50
2019-05-03T18:22:21.756Z,2.87
2019-05-03T18:24:49.146Z,5.83
2019-05-03T18:27:15.897Z,3.30
2019-05-03T18:29:42.175Z,3.30
2019-05-03T18:32:08.649Z,4.05
2019-05-03T18:37:16.177Z,3.27
2019-05-03T18:39:42.580Z,3.30
2019-05-03T18:42:10.975Z,3.65
2019-05-03T18:44:45.183Z,2.90
2019-05-03T18:47:14.705Z,2.80
2019-05-03T18:49:41.122Z,2.80
2019-05-03T18:52:07.438Z,3.00
2019-05-03T18:54:35.061Z,3.00
2019-05-03T18:57:01.574Z,2.60
2019-05-03T18:59:27.897Z,3.08
2019-05-03T19:01:55.229Z,2.90
2019-05-03T19:04:34.312Z,2.90
2019-05-03T19:07:04.144Z,3.40
2019-05-03T19:09:27.884Z,3.58
2019-05-03T19:12:05.197Z,3.08
2019-05-03T19:14:31.784Z,2.83
2019-05-03T19:17:18.438Z,3.17
2019-05-03T19:19:46.745Z,3.25
2019-05-03T19:22:15.294Z,3.02
2019-05-03T19:24:41.634Z,3.42
2019-05-03T19:27:08.491Z,3.25
2019-05-03T19:29:35.225Z,3.10
2019-05-03T19:32:01.885Z,2.90
2019-05-03T19:34:28.410Z,3.65
2019-05-03T19:36:54.869Z,3.15
2019-05-03T19:39:21.126Z,3.30
2019-05-03T19:41:47.437Z,3.20
2019-05-03T19:44:15.149Z,2.90
2019-05-03T19:46:41.770Z,3.50
2019-05-03T19:49:08.279Z,3.40
2019-05-03T19:51:36.527Z,3.15
2019-05-03T19:54:05.281Z,3.45
2019-05-03T19:56:31.497Z,3.12
2019-05-03T19:58:59.920Z,3.05
2019-05-03T20:01:28.213Z,3.05
2019-05-03T20:03:59.367Z,2.85
2019-05-03T20:06:45.083Z,3.02
2019-05-03T20:09:15.102Z,2.77
2019-05-03T20:11:41.520Z,2.30
2019-05-03T20:14:07.917Z,2.67
2019-05-03T20:16:36.720Z,2.33
2019-05-03T20:19:17.208Z,2.25
2019-05-03T20:21:31.831Z,2.08
2019-05-03T20:23:58.416Z,2.10
2019-05-03T20:26:25.373Z,2.20
2019-05-03T20:28:51.870Z,3.10
2019-05-03T20:31:21.166Z,2.30
2019-05-03T20:33:47.610Z,2.15
2019-05-03T20:36:15.959Z,2.22
2019-05-03T20:38:44.367Z,2.12
2019-05-03T20:41:10.689Z,2.15
2019-05-03T20:43:50.842Z,2.12
2019-05-03T20:46:19.311Z,2.70
2019-05-03T20:48:47.751Z,2.77
2019-05-03T20:51:14.887Z,2.83
2019-05-03T20:53:41.430Z,1.90
2019-05-03T20:56:07.684Z,2.00
2019-05-03T20:58:35.807Z,1.80
2019-05-03T21:01:02.442Z,2.05
2019-05-03T21:03:28.981Z,1.62
2019-05-03T21:05:55.461Z,1.80
2019-05-03T21:08:22.812Z,1.87
2019-05-03T21:10:49.181Z,1.87
2019-05-03T21:13:15.529Z,1.60
2019-05-03T21:16:00.669Z,1.55
2019-05-03T21:18:35.540Z,1.60
2019-05-03T21:21:13.090Z,1.92
2019-05-03T21:23:50.817Z,1.87
2019-05-03T21:26:17.435Z,1.90
2019-05-03T21:28:44.937Z,1.82
2019-05-03T21:31:11.492Z,2.00
2019-05-03T21:33:38.080Z,2.08
2019-05-03T21:36:04.794Z,2.30
2019-05-03T21:38:31.302Z,2.22
2019-05-03T21:40:57.584Z,2.00
2019-05-03T21:43:25.704Z,2.30
2019-05-03T21:45:56.646Z,2.10
2019-05-03T21:48:27.800Z,1.92
2019-05-03T21:50:54.456Z,2.50
2019-05-03T21:53:20.715Z,2.22
2019-05-03T21:55:47.115Z,2.50
2019-05-03T21:58:16.063Z,2.65
2019-05-03T22:00:52.216Z,2.35
2019-05-03T22:03:18.676Z,2.60
2019-05-03T22:05:54.444Z,2.52
2019-05-03T22:08:13.443Z,2.55
2019-05-03T22:10:39.822Z,2.77
2019-05-03T22:13:06.210Z,2.62
2019-05-03T22:15:46.860Z,2.52
2019-05-03T22:18:18.244Z,2.62
2019-05-03T22:20:52.458Z,2.90
2019-05-03T22:23:26.985Z,2.40
2019-05-03T22:25:54.305Z,3.00
2019-05-03T22:28:24.634Z,2.80
2019-05-03T22:30:51.073Z,2.95
2019-05-03T22:33:17.334Z,2.75
2019-05-03T22:35:44.527Z,3.30
2019-05-03T22:38:11.042Z,3.20
2019-05-03T22:40:37.330Z,3.58
2019-05-03T22:43:03.887Z,2.90
2019-05-03T22:45:30.452Z,3.10
2019-05-03T22:47:56.856Z,3.17
2019-05-03T22:50:25.378Z,3.17
2019-05-03T22:52:51.247Z,3.08
2019-05-03T22:55:17.642Z,3.17
2019-05-03T22:57:43.872Z,3.25
2019-05-03T23:00:10.877Z,3.35
2019-05-03T23:02:37.273Z,3.42
2019-05-03T23:05:04.770Z,3.40
2019-05-03T23:07:31.233Z,3.17
2019-05-03T23:09:57.523Z,3.37
2019-05-03T23:12:23.772Z,3.12
2019-05-03T23:14:50.157Z,3.75
2019-05-03T23:17:16.854Z,3.22
2019-05-03T23:19:45.126Z,3.77
2019-05-03T23:22:15.226Z,3.65
2019-05-03T23:24:41.469Z,4.20
2019-05-03T23:27:08.010Z,3.90
2019-05-03T23:29:34.918Z,3.52
2019-05-03T23:32:01.352Z,3.80
2019-05-03T23:34:27.669Z,3.45
2019-05-03T23:36:54.825Z,4.60
2019-05-03T23:39:21.287Z,4.15
2019-05-03T23:41:47.741Z,3.70
2019-05-03T23:44:15.166Z,3.65
2019-05-03T23:46:52.160Z,3.80
2019-05-03T23:49:18.561Z,4.20
2019-05-03T23:51:46.735Z,4.15
2019-05-03T23:54:14.950Z,3.58
2019-05-03T23:56:41.439Z,3.80
2019-05-03T23:59:07.703Z,3.60
